sensor_id;sensor_type;location;lat;lon;timestamp;pressure;altitude;pressure_sealevel;temperature;humidity
9257;BME280;4665;51.368;6.782;2023-04-28T00:01:35;101038.50;;;9.25;100.00
9257;BME280;4665;51.368;6.782;2023-04-28T00:04:00;101029.41;;;9.18;100.00
9257;BME280;4665;51.368;6.782;2023-04-28T00:06:26;101030.66;;;9.14;100.00
9257;BME280;4665;51.368;6.782;2023-04-28T00:08:53;101029.81;;;9.04;100.00
9257;BME280;4665;51.368;6.782;2023-04-28T00:11:19;101037.38;;;8.99;100.00
9257;BME280;4665;51.368;6.782;2023-04-28T00:13:44;101034.00;;;8.97;100.00
9257;BME280;4665;51.368;6.782;2023-04-28T00:16:10;101017.91;;;8.89;100.00
9257;BME280;4665;51.368;6.782;2023-04-28T00:18:35;101014.56;;;8.87;100.00
9257;BME280;4665;51.368;6.782;2023-04-28T00:21:01;101011.34;;;8.83;100.00
9257;BME280;4665;51.368;6.782;2023-04-28T00:23:26;101019.03;;;8.86;100.00
9257;BME280;4665;51.368;6.782;2023-04-28T00:25:52;100999.72;;;8.84;100.00
9257;BME280;4665;51.368;6.782;2023-04-28T00:28:18;100992.47;;;8.86;100.00
9257;BME280;4665;51.368;6.782;2023-04-28T00:30:44;100989.09;;;8.84;100.00
9257;BME280;4665;51.368;6.782;2023-04-28T00:33:09;100987.16;;;8.86;100.00
9257;BME280;4665;51.368;6.782;2023-04-28T00:35:35;100980.72;;;8.79;100.00
9257;BME280;4665;51.368;6.782;2023-04-28T00:38:00;100987.44;;;8.83;100.00
9257;BME280;4665;51.368;6.782;2023-04-28T00:40:36;100992.88;;;8.81;100.00
9257;BME280;4665;51.368;6.782;2023-04-28T00:43:02;100993.28;;;8.77;100.00
9257;BME280;4665;51.368;6.782;2023-04-28T00:45:28;100982.94;;;8.74;100.00
9257;BME280;4665;51.368;6.782;2023-04-28T00:47:54;100986.59;;;8.73;100.00
9257;BME280;4665;51.368;6.782;2023-04-28T00:50:21;100983.78;;;8.74;100.00
9257;BME280;4665;51.368;6.782;2023-04-28T00:52:46;100976.22;;;8.70;100.00
9257;BME280;4665;51.368;6.782;2023-04-28T00:55:14;100988.13;;;8.75;100.00
9257;BME280;4665;51.368;6.782;2023-04-28T00:57:40;100987.56;;;8.72;100.00
9257;BME280;4665;51.368;6.782;2023-04-28T01:00:06;100978.75;;;8.71;100.00
9257;BME280;4665;51.368;6.782;2023-04-28T01:02:32;100976.09;;;8.71;100.00
9257;BME280;4665;51.368;6.782;2023-04-28T01:04:58;100977.06;;;8.70;100.00
9257;BME280;4665;51.368;6.782;2023-04-28T01:07:24;100968.66;;;8.65;100.00
9257;BME280;4665;51.368;6.782;2023-04-28T01:09:49;100963.63;;;8.62;100.00
9257;BME280;4665;51.368;6.782;2023-04-28T01:12:15;100960.00;;;8.63;100.00
9257;BME280;4665;51.368;6.782;2023-04-28T01:14:41;100948.94;;;8.58;100.00
9257;BME280;4665;51.368;6.782;2023-04-28T01:17:07;100960.56;;;8.57;100.00
9257;BME280;4665;51.368;6.782;2023-04-28T01:19:33;100974.25;;;8.52;100.00
9257;BME280;4665;51.368;6.782;2023-04-28T01:21:58;100965.00;;;8.47;100.00
9257;BME280;4665;51.368;6.782;2023-04-28T01:24:23;100963.72;;;8.41;100.00
9257;BME280;4665;51.368;6.782;2023-04-28T01:26:49;100960.88;;;8.33;100.00
9257;BME280;4665;51.368;6.782;2023-04-28T01:29:14;100973.19;;;8.34;100.00
9257;BME280;4665;51.368;6.782;2023-04-28T01:31:40;100951.22;;;8.22;100.00
9257;BME280;4665;51.368;6.782;2023-04-28T01:34:05;100972.34;;;8.33;100.00
9257;BME280;4665;51.368;6.782;2023-04-28T01:36:31;100967.56;;;8.27;100.00
9257;BME280;4665;51.368;6.782;2023-04-28T01:38:57;100972.19;;;8.35;100.00
9257;BME280;4665;51.368;6.782;2023-04-28T01:41:22;100969.41;;;8.36;100.00
9257;BME280;4665;51.368;6.782;2023-04-28T01:43:48;100954.03;;;8.30;100.00
9257;BME280;4665;51.368;6.782;2023-04-28T01:46:13;100968.44;;;8.37;100.00
9257;BME280;4665;51.368;6.782;2023-04-28T01:48:39;100951.25;;;8.32;100.00
9257;BME280;4665;51.368;6.782;2023-04-28T01:51:04;100949.69;;;8.29;100.00
9257;BME280;4665;51.368;6.782;2023-04-28T01:53:29;100944.81;;;8.34;100.00
9257;BME280;4665;51.368;6.782;2023-04-28T01:55:55;100947.91;;;8.39;100.00
9257;BME280;4665;51.368;6.782;2023-04-28T01:58:20;100948.31;;;8.35;100.00
9257;BME280;4665;51.368;6.782;2023-04-28T02:00:46;100940.50;;;8.33;100.00
9257;BME280;4665;51.368;6.782;2023-04-28T02:03:12;100944.31;;;8.40;100.00
9257;BME280;4665;51.368;6.782;2023-04-28T02:05:37;100948.06;;;8.38;100.00
9257;BME280;4665;51.368;6.782;2023-04-28T02:08:03;100933.38;;;8.34;100.00
9257;BME280;4665;51.368;6.782;2023-04-28T02:10:28;100924.97;;;8.29;100.00
9257;BME280;4665;51.368;6.782;2023-04-28T02:12:53;100916.16;;;8.28;100.00
9257;BME280;4665;51.368;6.782;2023-04-28T02:15:19;100918.28;;;8.34;100.00
9257;BME280;4665;51.368;6.782;2023-04-28T02:17:45;100922.88;;;8.32;100.00
9257;BME280;4665;51.368;6.782;2023-04-28T02:20:11;100917.84;;;8.29;100.00
9257;BME280;4665;51.368;6.782;2023-04-28T02:22:38;100922.75;;;8.34;100.00
9257;BME280;4665;51.368;6.782;2023-04-28T02:25:04;100924.97;;;8.29;100.00
9257;BME280;4665;51.368;6.782;2023-04-28T02:27:29;100924.00;;;8.30;100.00
9257;BME280;4665;51.368;6.782;2023-04-28T02:29:55;100939.78;;;8.31;100.00
9257;BME280;4665;51.368;6.782;2023-04-28T02:32:20;100941.75;;;8.29;100.00
9257;BME280;4665;51.368;6.782;2023-04-28T02:34:46;100945.63;;;8.25;100.00
9257;BME280;4665;51.368;6.782;2023-04-28T02:37:11;100948.00;;;8.28;100.00
9257;BME280;4665;51.368;6.782;2023-04-28T02:39:36;100941.75;;;8.29;100.00
9257;BME280;4665;51.368;6.782;2023-04-28T02:42:02;100936.69;;;8.26;100.00
9257;BME280;4665;51.368;6.782;2023-04-28T02:44:29;100940.75;;;8.30;100.00
9257;BME280;4665;51.368;6.782;2023-04-28T02:46:55;100936.84;;;8.34;100.00
9257;BME280;4665;51.368;6.782;2023-04-28T02:49:20;100930.19;;;8.40;100.00
9257;BME280;4665;51.368;6.782;2023-04-28T02:51:46;100927.06;;;8.35;100.00
9257;BME280;4665;51.368;6.782;2023-04-28T02:54:11;100914.91;;;8.32;100.00
9257;BME280;4665;51.368;6.782;2023-04-28T02:56:36;100913.97;;;8.33;100.00
9257;BME280;4665;51.368;6.782;2023-04-28T02:59:02;100911.31;;;8.33;100.00
9257;BME280;4665;51.368;6.782;2023-04-28T03:01:28;100912.97;;;8.34;100.00
9257;BME280;4665;51.368;6.782;2023-04-28T03:03:53;100923.09;;;8.40;100.00
9257;BME280;4665;51.368;6.782;2023-04-28T03:06:18;100923.31;;;8.37;100.00
9257;BME280;4665;51.368;6.782;2023-04-28T03:08:44;100915.22;;;8.39;100.00
9257;BME280;4665;51.368;6.782;2023-04-28T03:11:09;100901.84;;;8.40;100.00
9257;BME280;4665;51.368;6.782;2023-04-28T03:13:35;100920.16;;;8.53;100.00
9257;BME280;4665;51.368;6.782;2023-04-28T03:16:01;100920.03;;;8.55;100.00
9257;BME280;4665;51.368;6.782;2023-04-28T03:18:26;100926.47;;;8.62;100.00
9257;BME280;4665;51.368;6.782;2023-04-28T03:20:52;100914.00;;;8.62;100.00
9257;BME280;4665;51.368;6.782;2023-04-28T03:23:17;100908.16;;;8.59;100.00
9257;BME280;4665;51.368;6.782;2023-04-28T03:25:43;100896.84;;;8.57;100.00
9257;BME280;4665;51.368;6.782;2023-04-28T03:28:08;100899.31;;;8.58;100.00
9257;BME280;4665;51.368;6.782;2023-04-28T03:30:34;100883.56;;;8.57;100.00
9257;BME280;4665;51.368;6.782;2023-04-28T03:33:00;100878.94;;;8.59;100.00
9257;BME280;4665;51.368;6.782;2023-04-28T03:35:25;100890.09;;;8.72;100.00
9257;BME280;4665;51.368;6.782;2023-04-28T03:37:51;100879.66;;;8.71;100.00
9257;BME280;4665;51.368;6.782;2023-04-28T03:40:17;100875.56;;;8.76;100.00
9257;BME280;4665;51.368;6.782;2023-04-28T03:42:42;100879.50;;;8.82;100.00
9257;BME280;4665;51.368;6.782;2023-04-28T03:45:08;100861.34;;;8.77;100.00
9257;BME280;4665;51.368;6.782;2023-04-28T03:47:33;100869.00;;;8.80;100.00
9257;BME280;4665;51.368;6.782;2023-04-28T03:49:59;100864.41;;;8.82;100.00
9257;BME280;4665;51.368;6.782;2023-04-28T03:52:25;100882.56;;;8.87;100.00
9257;BME280;4665;51.368;6.782;2023-04-28T03:54:52;100868.28;;;8.88;100.00
9257;BME280;4665;51.368;6.782;2023-04-28T03:57:18;100861.03;;;8.90;100.00
9257;BME280;4665;51.368;6.782;2023-04-28T03:59:43;100843.41;;;8.89;100.00
9257;BME280;4665;51.368;6.782;2023-04-28T04:02:08;100846.78;;;8.91;100.00
9257;BME280;4665;51.368;6.782;2023-04-28T04:04:34;100830.56;;;8.84;100.00
9257;BME280;4665;51.368;6.782;2023-04-28T04:06:59;100823.97;;;8.89;100.00
9257;BME280;4665;51.368;6.782;2023-04-28T04:09:25;100817.69;;;8.90;100.00
9257;BME280;4665;51.368;6.782;2023-04-28T04:11:50;100834.47;;;8.90;100.00
9257;BME280;4665;51.368;6.782;2023-04-28T04:14:15;100841.47;;;8.91;100.00
9257;BME280;4665;51.368;6.782;2023-04-28T04:16:41;100842.00;;;8.95;100.00
9257;BME280;4665;51.368;6.782;2023-04-28T04:19:06;100841.88;;;8.96;100.00
9257;BME280;4665;51.368;6.782;2023-04-28T04:21:32;100850.66;;;8.97;100.00
9257;BME280;4665;51.368;6.782;2023-04-28T04:23:57;100855.56;;;9.01;100.00
9257;BME280;4665;51.368;6.782;2023-04-28T04:26:22;100839.78;;;8.90;100.00
9257;BME280;4665;51.368;6.782;2023-04-28T04:28:48;100852.06;;;9.01;100.00
9257;BME280;4665;51.368;6.782;2023-04-28T04:31:13;100838.63;;;9.02;100.00
9257;BME280;4665;51.368;6.782;2023-04-28T04:33:39;100838.09;;;8.99;100.00
9257;BME280;4665;51.368;6.782;2023-04-28T04:36:05;100857.66;;;9.08;100.00
9257;BME280;4665;51.368;6.782;2023-04-28T04:38:30;100836.41;;;9.08;100.00
9257;BME280;4665;51.368;6.782;2023-04-28T04:40:56;100838.88;;;9.09;100.00
9257;BME280;4665;51.368;6.782;2023-04-28T04:43:21;100842.25;;;9.11;100.00
9257;BME280;4665;51.368;6.782;2023-04-28T04:45:49;100836.22;;;9.09;100.00
9257;BME280;4665;51.368;6.782;2023-04-28T04:48:14;100836.41;;;9.08;100.00
9257;BME280;4665;51.368;6.782;2023-04-28T04:50:40;100837.75;;;9.12;100.00
9257;BME280;4665;51.368;6.782;2023-04-28T04:53:06;100836.94;;;9.11;100.00
9257;BME280;4665;51.368;6.782;2023-04-28T04:55:32;100835.09;;;9.12;100.00
9257;BME280;4665;51.368;6.782;2023-04-28T04:57:57;100825.78;;;9.08;100.00
9257;BME280;4665;51.368;6.782;2023-04-28T05:00:23;100829.94;;;9.10;100.00
9257;BME280;4665;51.368;6.782;2023-04-28T05:02:48;100818.50;;;9.00;100.00
9257;BME280;4665;51.368;6.782;2023-04-28T05:05:13;100834.28;;;9.11;100.00
9257;BME280;4665;51.368;6.782;2023-04-28T05:07:39;100834.97;;;9.13;100.00
9257;BME280;4665;51.368;6.782;2023-04-28T05:10:05;100835.81;;;9.14;100.00
9257;BME280;4665;51.368;6.782;2023-04-28T05:12:31;100826.31;;;9.11;100.00
9257;BME280;4665;51.368;6.782;2023-04-28T05:14:56;100825.59;;;9.09;100.00
9257;BME280;4665;51.368;6.782;2023-04-28T05:17:22;100828.66;;;9.14;100.00
9257;BME280;4665;51.368;6.782;2023-04-28T05:19:47;100814.56;;;9.04;100.00
9257;BME280;4665;51.368;6.782;2023-04-28T05:22:12;100808.00;;;9.08;100.00
9257;BME280;4665;51.368;6.782;2023-04-28T05:24:38;100795.84;;;9.05;100.00
9257;BME280;4665;51.368;6.782;2023-04-28T05:27:03;100808.09;;;9.16;100.00
9257;BME280;4665;51.368;6.782;2023-04-28T05:29:28;100809.78;;;9.17;100.00
9257;BME280;4665;51.368;6.782;2023-04-28T05:31:54;100799.84;;;9.19;100.00
9257;BME280;4665;51.368;6.782;2023-04-28T05:34:19;100800.53;;;9.21;100.00
9257;BME280;4665;51.368;6.782;2023-04-28T05:36:45;100804.56;;;9.25;100.00
9257;BME280;4665;51.368;6.782;2023-04-28T05:39:10;100807.22;;;9.25;100.00
9257;BME280;4665;51.368;6.782;2023-04-28T05:41:36;100814.38;;;9.25;100.00
9257;BME280;4665;51.368;6.782;2023-04-28T05:44:01;100815.47;;;9.32;100.00
9257;BME280;4665;51.368;6.782;2023-04-28T05:46:27;100817.84;;;9.35;100.00
9257;BME280;4665;51.368;6.782;2023-04-28T05:48:52;100792.66;;;9.30;100.00
9257;BME280;4665;51.368;6.782;2023-04-28T05:51:18;100813.06;;;9.39;100.00
9257;BME280;4665;51.368;6.782;2023-04-28T05:53:43;100802.72;;;9.36;100.00
9257;BME280;4665;51.368;6.782;2023-04-28T05:56:13;100809.97;;;9.43;100.00
9257;BME280;4665;51.368;6.782;2023-04-28T05:58:38;100810.53;;;9.47;100.00
9257;BME280;4665;51.368;6.782;2023-04-28T06:01:03;100820.28;;;9.46;100.00
9257;BME280;4665;51.368;6.782;2023-04-28T06:03:29;100808.53;;;9.49;100.00
9257;BME280;4665;51.368;6.782;2023-04-28T06:05:54;100800.03;;;9.45;100.00
9257;BME280;4665;51.368;6.782;2023-04-28T06:08:20;100807.25;;;9.53;100.00
9257;BME280;4665;51.368;6.782;2023-04-28T06:10:45;100793.97;;;9.53;100.00
9257;BME280;4665;51.368;6.782;2023-04-28T06:13:10;100799.53;;;9.60;100.00
9257;BME280;4665;51.368;6.782;2023-04-28T06:15:36;100786.28;;;9.50;100.00
9257;BME280;4665;51.368;6.782;2023-04-28T06:18:02;100790.84;;;9.58;100.00
9257;BME280;4665;51.368;6.782;2023-04-28T06:20:27;100778.84;;;9.54;100.00
9257;BME280;4665;51.368;6.782;2023-04-28T06:22:53;100776.59;;;9.59;100.00
9257;BME280;4665;51.368;6.782;2023-04-28T06:25:18;100776.28;;;9.62;100.00
9257;BME280;4665;51.368;6.782;2023-04-28T06:27:43;100781.03;;;9.68;100.00
9257;BME280;4665;51.368;6.782;2023-04-28T06:30:09;100780.84;;;9.69;100.00
9257;BME280;4665;51.368;6.782;2023-04-28T06:32:34;100797.31;;;9.83;100.00
9257;BME280;4665;51.368;6.782;2023-04-28T06:35:00;100782.78;;;9.77;100.00
9257;BME280;4665;51.368;6.782;2023-04-28T06:37:25;100776.34;;;9.80;100.00
9257;BME280;4665;51.368;6.782;2023-04-28T06:39:51;100786.47;;;9.94;100.00
9257;BME280;4665;51.368;6.782;2023-04-28T06:42:16;100797.88;;;10.04;100.00
9257;BME280;4665;51.368;6.782;2023-04-28T06:44:43;100800.63;;;10.13;100.00
9257;BME280;4665;51.368;6.782;2023-04-28T06:47:09;100792.31;;;10.16;100.00
9257;BME280;4665;51.368;6.782;2023-04-28T06:49:35;100802.00;;;10.17;100.00
9257;BME280;4665;51.368;6.782;2023-04-28T06:52:00;100794.53;;;10.20;100.00
9257;BME280;4665;51.368;6.782;2023-04-28T06:54:25;100780.75;;;10.25;100.00
9257;BME280;4665;51.368;6.782;2023-04-28T06:56:51;100773.03;;;10.31;100.00
9257;BME280;4665;51.368;6.782;2023-04-28T06:59:16;100752.16;;;10.27;100.00
9257;BME280;4665;51.368;6.782;2023-04-28T07:01:42;100753.63;;;10.39;100.00
9257;BME280;4665;51.368;6.782;2023-04-28T07:04:07;100771.94;;;10.60;100.00
9257;BME280;4665;51.368;6.782;2023-04-28T07:06:32;100768.13;;;10.63;100.00
9257;BME280;4665;51.368;6.782;2023-04-28T07:08:58;100785.69;;;10.73;100.00
9257;BME280;4665;51.368;6.782;2023-04-28T07:11:23;100773.19;;;10.74;100.00
9257;BME280;4665;51.368;6.782;2023-04-28T07:13:49;100784.63;;;10.84;100.00
9257;BME280;4665;51.368;6.782;2023-04-28T07:16:16;100770.72;;;10.99;100.00
9257;BME280;4665;51.368;6.782;2023-04-28T07:18:42;100772.06;;;11.03;100.00
9257;BME280;4665;51.368;6.782;2023-04-28T07:21:07;100779.28;;;11.10;100.00
9257;BME280;4665;51.368;6.782;2023-04-28T07:23:33;100767.44;;;11.13;100.00
9257;BME280;4665;51.368;6.782;2023-04-28T07:25:58;100753.09;;;11.06;100.00
9257;BME280;4665;51.368;6.782;2023-04-28T07:28:23;100755.44;;;11.09;100.00
9257;BME280;4665;51.368;6.782;2023-04-28T07:30:49;100764.78;;;11.13;100.00
9257;BME280;4665;51.368;6.782;2023-04-28T07:33:14;100761.50;;;11.19;100.00
9257;BME280;4665;51.368;6.782;2023-04-28T07:35:40;100749.47;;;11.15;100.00
9257;BME280;4665;51.368;6.782;2023-04-28T07:38:05;100765.91;;;11.36;100.00
9257;BME280;4665;51.368;6.782;2023-04-28T07:40:30;100756.50;;;11.24;100.00
9257;BME280;4665;51.368;6.782;2023-04-28T07:42:56;100775.38;;;11.31;100.00
9257;BME280;4665;51.368;6.782;2023-04-28T07:45:21;100784.06;;;11.33;100.00
9257;BME280;4665;51.368;6.782;2023-04-28T07:47:46;100774.84;;;11.27;100.00
9257;BME280;4665;51.368;6.782;2023-04-28T07:50:12;100789.91;;;11.36;100.00
9257;BME280;4665;51.368;6.782;2023-04-28T07:52:37;100762.53;;;11.26;100.00
9257;BME280;4665;51.368;6.782;2023-04-28T07:55:03;100766.16;;;11.25;100.00
9257;BME280;4665;51.368;6.782;2023-04-28T07:57:29;100761.53;;;11.27;100.00
9257;BME280;4665;51.368;6.782;2023-04-28T07:59:55;100753.88;;;11.32;100.00
9257;BME280;4665;51.368;6.782;2023-04-28T08:02:20;100776.41;;;11.38;100.00
9257;BME280;4665;51.368;6.782;2023-04-28T08:04:46;100752.75;;;11.35;100.00
9257;BME280;4665;51.368;6.782;2023-04-28T08:07:11;100760.25;;;11.40;100.00
9257;BME280;4665;51.368;6.782;2023-04-28T08:09:37;100768.97;;;11.50;100.00
9257;BME280;4665;51.368;6.782;2023-04-28T08:12:04;100754.94;;;11.48;100.00
9257;BME280;4665;51.368;6.782;2023-04-28T08:14:29;100752.13;;;11.49;100.00
9257;BME280;4665;51.368;6.782;2023-04-28T08:16:55;100744.28;;;11.48;100.00
9257;BME280;4665;51.368;6.782;2023-04-28T08:19:21;100735.28;;;11.49;100.00
9257;BME280;4665;51.368;6.782;2023-04-28T08:21:46;100733.13;;;11.52;100.00
9257;BME280;4665;51.368;6.782;2023-04-28T08:24:12;100750.66;;;11.63;100.00
9257;BME280;4665;51.368;6.782;2023-04-28T08:26:37;100763.00;;;11.64;100.00
9257;BME280;4665;51.368;6.782;2023-04-28T08:29:03;100772.38;;;11.68;100.00
9257;BME280;4665;51.368;6.782;2023-04-28T08:31:28;100780.91;;;11.80;100.00
9257;BME280;4665;51.368;6.782;2023-04-28T08:33:54;100754.19;;;11.72;100.00
9257;BME280;4665;51.368;6.782;2023-04-28T08:36:19;100760.56;;;11.79;100.00
9257;BME280;4665;51.368;6.782;2023-04-28T08:38:45;100750.22;;;11.84;100.00
9257;BME280;4665;51.368;6.782;2023-04-28T08:41:12;100759.97;;;11.93;100.00
9257;BME280;4665;51.368;6.782;2023-04-28T08:43:39;100763.78;;;11.99;100.00
9257;BME280;4665;51.368;6.782;2023-04-28T08:46:07;100752.28;;;11.98;100.00
9257;BME280;4665;51.368;6.782;2023-04-28T08:48:39;100756.78;;;11.98;100.00
9257;BME280;4665;51.368;6.782;2023-04-28T08:51:06;100752.78;;;12.02;100.00
9257;BME280;4665;51.368;6.782;2023-04-28T08:53:36;100762.47;;;12.11;100.00
9257;BME280;4665;51.368;6.782;2023-04-28T08:56:04;100782.53;;;12.24;100.00
9257;BME280;4665;51.368;6.782;2023-04-28T08:58:31;100776.03;;;12.26;100.00
9257;BME280;4665;51.368;6.782;2023-04-28T09:00:56;100780.00;;;12.22;100.00
9257;BME280;4665;51.368;6.782;2023-04-28T09:03:22;100766.16;;;12.18;100.00
9257;BME280;4665;51.368;6.782;2023-04-28T09:05:47;100780.16;;;12.20;100.00
9257;BME280;4665;51.368;6.782;2023-04-28T09:08:13;100767.16;;;12.17;100.00
9257;BME280;4665;51.368;6.782;2023-04-28T09:10:39;100776.66;;;12.20;100.00
9257;BME280;4665;51.368;6.782;2023-04-28T09:13:05;100772.16;;;12.20;100.00
9257;BME280;4665;51.368;6.782;2023-04-28T09:15:37;100774.00;;;12.20;100.00
9257;BME280;4665;51.368;6.782;2023-04-28T09:18:07;100769.84;;;12.26;100.00
9257;BME280;4665;51.368;6.782;2023-04-28T09:20:34;100766.50;;;12.24;100.00
9257;BME280;4665;51.368;6.782;2023-04-28T09:26:11;100784.38;;;12.39;100.00
9257;BME280;4665;51.368;6.782;2023-04-28T09:28:36;100780.69;;;12.40;100.00
9257;BME280;4665;51.368;6.782;2023-04-28T09:31:02;100780.53;;;12.42;100.00
9257;BME280;4665;51.368;6.782;2023-04-28T09:33:28;100784.53;;;12.46;100.00
9257;BME280;4665;51.368;6.782;2023-04-28T09:35:53;100761.47;;;12.37;100.00
9257;BME280;4665;51.368;6.782;2023-04-28T09:38:20;100750.47;;;12.40;100.00
9257;BME280;4665;51.368;6.782;2023-04-28T09:43:30;100761.16;;;12.56;100.00
9257;BME280;4665;51.368;6.782;2023-04-28T09:46:03;100762.81;;;12.57;100.00
9257;BME280;4665;51.368;6.782;2023-04-28T09:48:38;100768.66;;;12.69;100.00
9257;BME280;4665;51.368;6.782;2023-04-28T09:51:06;100761.97;;;12.73;100.00
9257;BME280;4665;51.368;6.782;2023-04-28T09:53:32;100757.97;;;12.77;100.00
9257;BME280;4665;51.368;6.782;2023-04-28T09:56:00;100754.78;;;12.74;100.00
9257;BME280;4665;51.368;6.782;2023-04-28T09:58:27;100758.78;;;12.78;100.00
9257;BME280;4665;51.368;6.782;2023-04-28T10:00:55;100759.78;;;12.85;100.00
9257;BME280;4665;51.368;6.782;2023-04-28T10:03:25;100764.81;;;12.88;100.00
9257;BME280;4665;51.368;6.782;2023-04-28T10:05:52;100765.13;;;12.85;100.00
9257;BME280;4665;51.368;6.782;2023-04-28T10:08:22;100765.13;;;12.85;100.00
9257;BME280;4665;51.368;6.782;2023-04-28T10:10:48;100764.66;;;12.81;100.00
9257;BME280;4665;51.368;6.782;2023-04-28T10:13:18;100766.47;;;12.81;100.00
9257;BME280;4665;51.368;6.782;2023-04-28T10:15:45;100763.78;;;12.81;100.00
9257;BME280;4665;51.368;6.782;2023-04-28T10:18:12;100770.81;;;12.82;100.00
9257;BME280;4665;51.368;6.782;2023-04-28T10:20:44;100762.13;;;12.80;100.00
9257;BME280;4665;51.368;6.782;2023-04-28T10:23:41;100769.81;;;12.83;100.00
9257;BME280;4665;51.368;6.782;2023-04-28T10:26:13;100760.81;;;12.84;100.00
9257;BME280;4665;51.368;6.782;2023-04-28T10:28:52;100764.81;;;12.88;100.00
9257;BME280;4665;51.368;6.782;2023-04-28T10:31:18;100764.13;;;12.86;100.00
9257;BME280;4665;51.368;6.782;2023-04-28T10:33:48;100762.47;;;12.85;100.00
9257;BME280;4665;51.368;6.782;2023-04-28T10:36:45;100771.81;;;12.89;100.00
9257;BME280;4665;51.368;6.782;2023-04-28T10:39:11;100771.47;;;12.92;100.00
9257;BME280;4665;51.368;6.782;2023-04-28T10:41:37;100771.31;;;12.94;100.00
9257;BME280;4665;51.368;6.782;2023-04-28T10:47:06;100763.78;;;12.97;100.00
9257;BME280;4665;51.368;6.782;2023-04-28T11:00:41;100781.84;;;12.95;100.00
9257;BME280;4665;51.368;6.782;2023-04-28T11:03:07;100786.53;;;12.93;100.00
9257;BME280;4665;51.368;6.782;2023-04-28T11:05:32;100786.31;;;12.95;100.00
9257;BME280;4665;51.368;6.782;2023-04-28T11:13:34;100780.97;;;12.95;100.00
9257;BME280;4665;51.368;6.782;2023-04-28T11:16:03;100778.16;;;12.96;100.00
9257;BME280;4665;51.368;6.782;2023-04-28T11:21:15;100780.31;;;13.01;100.00
9257;BME280;4665;51.368;6.782;2023-04-28T11:23:41;100781.28;;;13.08;100.00
9257;BME280;4665;51.368;6.782;2023-04-28T11:26:07;100781.81;;;13.12;100.00
9257;BME280;4665;51.368;6.782;2023-04-28T11:28:32;100776.31;;;13.05;100.00
9257;BME280;4665;51.368;6.782;2023-04-28T11:31:13;100779.78;;;13.14;100.00
9257;BME280;4665;51.368;6.782;2023-04-28T11:33:44;100779.97;;;13.12;100.00
9257;BME280;4665;51.368;6.782;2023-04-28T11:36:35;100792.66;;;13.18;100.00
9257;BME280;4665;51.368;6.782;2023-04-28T11:39:05;100800.84;;;13.17;100.00
9257;BME280;4665;51.368;6.782;2023-04-28T11:41:33;100791.31;;;13.14;100.00
9257;BME280;4665;51.368;6.782;2023-04-28T11:44:00;100797.16;;;13.18;100.00
9257;BME280;4665;51.368;6.782;2023-04-28T11:46:26;100794.47;;;13.18;100.00
9257;BME280;4665;51.368;6.782;2023-04-28T11:49:09;100781.97;;;13.18;100.00
9257;BME280;4665;51.368;6.782;2023-04-28T11:51:37;100769.41;;;13.11;100.00
9257;BME280;4665;51.368;6.782;2023-04-28T11:54:04;100781.75;;;13.20;100.00
9257;BME280;4665;51.368;6.782;2023-04-28T11:56:38;100774.09;;;13.17;100.00
9257;BME280;4665;51.368;6.782;2023-04-28T12:04:11;100790.47;;;13.30;100.00
9257;BME280;4665;51.368;6.782;2023-04-28T12:06:37;100798.81;;;13.35;100.00
9257;BME280;4665;51.368;6.782;2023-04-28T12:09:23;100793.59;;;13.42;100.00
9257;BME280;4665;51.368;6.782;2023-04-28T12:12:07;100798.41;;;13.55;100.00
9257;BME280;4665;51.368;6.782;2023-04-28T12:15:13;100788.53;;;13.55;100.00
9257;BME280;4665;51.368;6.782;2023-04-28T12:17:39;100798.53;;;13.61;100.00
9257;BME280;4665;51.368;6.782;2023-04-28T12:20:06;100794.50;;;13.65;100.00
9257;BME280;4665;51.368;6.782;2023-04-28T12:22:48;100794.97;;;13.69;100.00
9257;BME280;4665;51.368;6.782;2023-04-28T12:25:16;100794.97;;;13.77;100.00
9257;BME280;4665;51.368;6.782;2023-04-28T12:28:01;100797.28;;;13.80;100.00
9257;BME280;4665;51.368;6.782;2023-04-28T12:30:27;100791.59;;;13.83;100.00
9257;BME280;4665;51.368;6.782;2023-04-28T12:32:54;100792.06;;;13.87;100.00
9257;BME280;4665;51.368;6.782;2023-04-28T12:35:24;100789.88;;;13.91;100.00
9257;BME280;4665;51.368;6.782;2023-04-28T12:37:50;100784.44;;;13.99;100.00
9257;BME280;4665;51.368;6.782;2023-04-28T12:40:16;100773.56;;;14.00;100.00
9257;BME280;4665;51.368;6.782;2023-04-28T12:42:41;100782.69;;;14.14;100.00
9257;BME280;4665;51.368;6.782;2023-04-28T12:45:07;100780.25;;;14.27;100.00
9257;BME280;4665;51.368;6.782;2023-04-28T12:47:34;100766.91;;;14.42;100.00
9257;BME280;4665;51.368;6.782;2023-04-28T12:49:59;100778.56;;;14.49;100.00
9257;BME280;4665;51.368;6.782;2023-04-28T12:52:25;100764.16;;;14.50;100.00
9257;BME280;4665;51.368;6.782;2023-04-28T12:54:50;100769.97;;;14.62;100.00
9257;BME280;4665;51.368;6.782;2023-04-28T12:57:16;100755.81;;;14.68;100.00
9257;BME280;4665;51.368;6.782;2023-04-28T12:59:42;100753.91;;;14.92;100.00
9257;BME280;4665;51.368;6.782;2023-04-28T13:02:08;100732.38;;;15.00;100.00
9257;BME280;4665;51.368;6.782;2023-04-28T13:04:34;100726.34;;;15.13;100.00
9257;BME280;4665;51.368;6.782;2023-04-28T13:06:59;100713.19;;;15.33;100.00
9257;BME280;4665;51.368;6.782;2023-04-28T13:09:25;100711.31;;;15.48;100.00
9257;BME280;4665;51.368;6.782;2023-04-28T13:11:51;100688.16;;;15.47;100.00
9257;BME280;4665;51.368;6.782;2023-04-28T13:14:20;100695.09;;;15.71;100.00
9257;BME280;4665;51.368;6.782;2023-04-28T13:16:46;100693.66;;;15.75;100.00
9257;BME280;4665;51.368;6.782;2023-04-28T13:19:12;100685.38;;;15.70;100.00
9257;BME280;4665;51.368;6.782;2023-04-28T13:21:41;100683.00;;;15.82;100.00
9257;BME280;4665;51.368;6.782;2023-04-28T13:24:07;100666.53;;;15.85;100.00
9257;BME280;4665;51.368;6.782;2023-04-28T13:26:33;100657.22;;;16.09;100.00
9257;BME280;4665;51.368;6.782;2023-04-28T13:28:59;100646.53;;;16.16;100.00
9257;BME280;4665;51.368;6.782;2023-04-28T13:31:26;100667.81;;;16.39;100.00
9257;BME280;4665;51.368;6.782;2023-04-28T13:33:51;100650.63;;;16.40;100.00
9257;BME280;4665;51.368;6.782;2023-04-28T13:36:17;100650.25;;;16.43;100.00